createdAt,value
2019-05-14T00:00:03.466Z,5.8
2019-05-14T00:01:03.834Z,5.6
2019-05-14T00:02:03.529Z,5.5
2019-05-14T00:03:03.271Z,5.5
2019-05-14T00:04:03.527Z,5.4
2019-05-14T00:05:03.533Z,5.3
2019-05-14T00:06:03.183Z,5.3
2019-05-14T00:07:03.184Z,5.3
2019-05-14T00:08:03.062Z,5.4
2019-05-14T00:09:03.501Z,5.3
2019-05-14T00:10:03.122Z,5.2
2019-05-14T00:11:03.664Z,5.2
2019-05-14T00:12:03.118Z,5.3
2019-05-14T00:13:03.303Z,5.2
2019-05-14T00:14:03.084Z,5
2019-05-14T00:15:02.859Z,4.8
2019-05-14T00:16:03.012Z,4.9
2019-05-14T00:17:03.019Z,4.9
2019-05-14T00:18:03.087Z,4.9
2019-05-14T00:19:02.872Z,4.8
2019-05-14T00:20:13.394Z,4.8
2019-05-14T00:21:02.722Z,4.9
2019-05-14T00:22:02.811Z,5
2019-05-14T00:23:02.702Z,4.9
2019-05-14T00:24:03.650Z,4.8
2019-05-14T00:25:02.776Z,4.9
2019-05-14T00:26:03.292Z,4.9
2019-05-14T00:27:03.606Z,4.8
2019-05-14T00:28:03.413Z,4.9
2019-05-14T00:29:03.450Z,4.8
2019-05-14T00:30:03.458Z,4.8
2019-05-14T00:31:03.383Z,4.6
2019-05-14T00:32:03.539Z,4.7
2019-05-14T00:33:03.497Z,4.8
2019-05-14T00:34:03.121Z,4.8
2019-05-14T00:35:03.321Z,4.8
2019-05-14T00:36:03.423Z,4.8
2019-05-14T00:37:03.301Z,4.7
2019-05-14T00:38:03.285Z,4.6
2019-05-14T00:39:02.992Z,4.6
2019-05-14T00:40:03.288Z,4.4
2019-05-14T00:41:03.069Z,4.4
2019-05-14T00:42:03.337Z,4.4
2019-05-14T00:43:03.108Z,4.4
2019-05-14T00:44:03.600Z,4.6
2019-05-14T00:45:03.486Z,4.7
2019-05-14T00:46:03.404Z,4.6
2019-05-14T00:47:03.695Z,4.4
2019-05-14T00:48:03.012Z,4.3
2019-05-14T00:49:03.111Z,4.3
2019-05-14T00:50:03.191Z,4.2
2019-05-14T00:51:02.976Z,4.2
2019-05-14T00:52:02.996Z,4.2
2019-05-14T00:53:03.277Z,4.2
2019-05-14T00:54:02.948Z,4.2
2019-05-14T00:55:02.974Z,4.2
2019-05-14T00:56:03.007Z,4.3
2019-05-14T00:57:02.857Z,4.3
2019-05-14T00:58:02.867Z,4.3
2019-05-14T00:59:03.693Z,4.3
2019-05-14T01:00:03.591Z,4.4
2019-05-14T01:01:03.088Z,4.4
2019-05-14T01:02:03.408Z,4.4
2019-05-14T01:03:03.508Z,4.3
2019-05-14T01:04:03.347Z,4.3
2019-05-14T01:05:03.196Z,4.4
2019-05-14T01:06:03.688Z,4.4
2019-05-14T01:07:04.662Z,4.4
2019-05-14T01:08:03.420Z,4.4
2019-05-14T01:09:03.432Z,4.4
2019-05-14T01:10:03.393Z,4.4
2019-05-14T01:11:03.463Z,4.5
2019-05-14T01:12:03.113Z,4.5
2019-05-14T01:13:03.208Z,4.5
2019-05-14T01:14:03.108Z,4.4
2019-05-14T01:15:14.313Z,4.4
2019-05-14T01:16:03.013Z,4.3
2019-05-14T01:17:03.361Z,4.3
2019-05-14T01:18:03.123Z,4.3
2019-05-14T01:19:03.065Z,4.4
2019-05-14T01:20:03.429Z,4.4
2019-05-14T01:21:02.926Z,4.5
2019-05-14T01:22:02.946Z,4.5
2019-05-14T01:23:02.615Z,4.4
2019-05-14T01:24:03.010Z,4.4
2019-05-14T01:25:03.044Z,4.4
2019-05-14T01:26:02.907Z,4.4
2019-05-14T01:27:03.550Z,4.4
2019-05-14T01:28:02.984Z,4.4
2019-05-14T01:29:03.652Z,4.4
2019-05-14T01:30:03.707Z,4.4
2019-05-14T01:31:03.494Z,4.4
2019-05-14T01:32:03.000Z,4.4
2019-05-14T01:33:03.646Z,4.4
2019-05-14T01:34:03.535Z,4.3
2019-05-14T01:35:03.553Z,4.3
2019-05-14T01:36:03.337Z,4.2
2019-05-14T01:37:03.580Z,4.1
2019-05-14T01:38:03.417Z,3.9
2019-05-14T01:39:03.550Z,3.9
2019-05-14T01:40:03.566Z,3.9
2019-05-14T01:41:03.284Z,3.9
2019-05-14T01:42:03.355Z,3.9
2019-05-14T01:43:02.909Z,3.8
2019-05-14T01:44:03.264Z,3.8
2019-05-14T01:45:03.405Z,3.8
2019-05-14T01:46:03.224Z,3.8
2019-05-14T01:47:03.108Z,3.7
2019-05-14T01:48:03.263Z,3.6
2019-05-14T01:49:03.171Z,3.7
2019-05-14T01:50:03.333Z,3.7
2019-05-14T01:51:03.059Z,3.7
2019-05-14T01:52:02.744Z,3.8
2019-05-14T01:53:02.911Z,3.8
2019-05-14T01:54:03.029Z,3.7
2019-05-14T01:55:02.886Z,3.7
2019-05-14T01:56:02.751Z,3.7
2019-05-14T01:57:02.810Z,3.7
2019-05-14T01:58:02.796Z,3.7
2019-05-14T01:59:02.710Z,3.7
2019-05-14T02:00:02.814Z,3.7
2019-05-14T02:01:02.853Z,3.7
2019-05-14T02:02:03.893Z,3.7
2019-05-14T02:03:03.590Z,3.8
2019-05-14T02:04:04.160Z,3.9
2019-05-14T02:05:03.443Z,3.9
2019-05-14T02:06:03.428Z,3.9
2019-05-14T02:07:03.229Z,3.8
2019-05-14T02:08:03.317Z,3.8
2019-05-14T02:09:03.390Z,3.7
2019-05-14T02:10:03.373Z,3.5
2019-05-14T02:11:03.120Z,3.5
2019-05-14T02:12:03.358Z,3.3
2019-05-14T02:13:03.524Z,3.1
2019-05-14T02:14:03.161Z,3.1
2019-05-14T02:15:03.293Z,3.1
2019-05-14T02:16:03.234Z,3.1
2019-05-14T02:17:02.948Z,3
2019-05-14T02:18:03.175Z,2.9
2019-05-14T02:19:02.860Z,2.9
2019-05-14T02:20:02.959Z,2.9
2019-05-14T02:21:02.939Z,2.9
2019-05-14T02:22:02.941Z,2.9
2019-05-14T02:23:03.018Z,2.9
2019-05-14T02:24:02.748Z,2.9
2019-05-14T02:25:02.816Z,3
2019-05-14T02:26:02.934Z,3
2019-05-14T02:27:02.610Z,3.2
2019-05-14T02:28:03.409Z,3.1
2019-05-14T02:29:03.567Z,3
2019-05-14T02:30:02.770Z,2.9
2019-05-14T02:31:04.340Z,2.9
2019-05-14T02:32:03.638Z,2.9
2019-05-14T02:33:03.337Z,2.7
2019-05-14T02:34:03.217Z,2.6
2019-05-14T02:35:03.496Z,2.6
2019-05-14T02:36:03.293Z,2.6
2019-05-14T02:37:03.422Z,2.6
2019-05-14T02:38:03.098Z,2.6
2019-05-14T02:39:03.290Z,2.6
2019-05-14T02:40:03.195Z,2.6
2019-05-14T02:41:03.141Z,2.5
2019-05-14T02:42:03.132Z,2.6
2019-05-14T02:43:03.241Z,2.6
2019-05-14T02:44:03.392Z,2.6
2019-05-14T02:45:03.241Z,2.6
2019-05-14T02:46:21.482Z,2.6
2019-05-14T02:47:02.905Z,2.5
2019-05-14T02:48:03.117Z,2.5
2019-05-14T02:49:02.621Z,2.6
2019-05-14T02:50:02.992Z,2.6
2019-05-14T02:51:02.720Z,2.5
2019-05-14T02:52:03.412Z,2.5
2019-05-14T02:53:03.697Z,2.4
2019-05-14T02:54:02.894Z,2.4
2019-05-14T02:55:02.766Z,2.4
2019-05-14T02:56:03.403Z,2.4
2019-05-14T02:57:02.698Z,2.4
2019-05-14T02:58:03.421Z,2.4
2019-05-14T02:59:09.941Z,2.4
2019-05-14T03:00:03.656Z,2.4
2019-05-14T03:01:03.543Z,2.4
2019-05-14T03:02:03.373Z,2.4
2019-05-14T03:03:02.763Z,2.4
2019-05-14T03:04:03.360Z,2.3
2019-05-14T03:05:02.829Z,2.3
2019-05-14T03:06:03.435Z,2.2
2019-05-14T03:07:03.241Z,2.1
2019-05-14T03:08:03.297Z,2.1
2019-05-14T03:09:03.185Z,2.1
2019-05-14T03:10:03.357Z,2.1
2019-05-14T03:11:03.145Z,2.3
2019-05-14T03:12:03.371Z,2.4
2019-05-14T03:13:03.022Z,2.5
2019-05-14T03:14:03.323Z,2.6
2019-05-14T03:15:03.243Z,2.6
2019-05-14T03:16:35.355Z,2.6
2019-05-14T03:17:03.203Z,2.6
2019-05-14T03:18:02.996Z,2.6
2019-05-14T03:19:02.947Z,2.6
2019-05-14T03:20:02.975Z,2.6
2019-05-14T03:21:02.998Z,2.6
2019-05-14T03:22:02.778Z,2.6
2019-05-14T03:23:18.574Z,2.7
2019-05-14T03:24:02.976Z,2.7
2019-05-14T03:25:03.153Z,2.7
2019-05-14T03:26:02.711Z,2.6
2019-05-14T03:27:02.754Z,2.6
2019-05-14T03:28:02.886Z,2.6
2019-05-14T03:29:02.597Z,2.5
2019-05-14T03:30:02.950Z,2.5
2019-05-14T03:31:04.731Z,2.6
2019-05-14T03:32:04.159Z,2.6
2019-05-14T03:33:03.843Z,2.7
2019-05-14T03:34:04.286Z,2.6
2019-05-14T03:35:05.132Z,2.4
2019-05-14T03:36:24.948Z,2.3
2019-05-14T03:37:04.561Z,2.2
2019-05-14T03:38:03.449Z,2.1
2019-05-14T03:39:03.288Z,2.2
2019-05-14T03:40:03.256Z,2.2
2019-05-14T03:41:03.358Z,2.1
2019-05-14T03:42:03.309Z,2.1
2019-05-14T03:43:03.295Z,2.2
2019-05-14T03:44:03.292Z,2.1
2019-05-14T03:45:03.379Z,2.1
2019-05-14T03:46:03.009Z,2
2019-05-14T03:47:10.059Z,1.9
2019-05-14T03:48:03.118Z,2
2019-05-14T03:49:02.846Z,2.1
2019-05-14T03:50:02.769Z,2.1
2019-05-14T03:51:02.794Z,2.1
2019-05-14T03:52:03.015Z,2.2
2019-05-14T03:53:02.991Z,2.2
2019-05-14T03:54:13.019Z,2.2
2019-05-14T03:55:05.218Z,2.2
2019-05-14T03:56:02.642Z,2
2019-05-14T03:57:02.690Z,2.2
2019-05-14T03:58:02.453Z,2.3
2019-05-14T03:59:03.722Z,2.3
2019-05-14T04:00:03.593Z,2.4
2019-05-14T04:01:03.595Z,2.4
2019-05-14T04:02:03.577Z,2.4
2019-05-14T04:03:03.329Z,2.5
2019-05-14T04:04:03.241Z,2.5
2019-05-14T04:05:03.525Z,2.5
2019-05-14T04:06:03.380Z,2.6
2019-05-14T04:07:03.612Z,2.6
2019-05-14T04:08:03.221Z,2.5
2019-05-14T04:09:03.521Z,2.4
2019-05-14T04:10:03.278Z,2.4
2019-05-14T04:11:03.075Z,2.4
2019-05-14T04:12:03.204Z,2.4
2019-05-14T04:13:03.113Z,2.3
2019-05-14T04:14:03.044Z,2.3
2019-05-14T04:15:03.049Z,2.4
2019-05-14T04:16:03.618Z,2.4
2019-05-14T04:17:17.372Z,2.4
2019-05-14T04:18:03.518Z,2.6
2019-05-14T04:19:03.440Z,2.6
2019-05-14T04:20:03.253Z,2.5
2019-05-14T04:21:02.967Z,2.4
2019-05-14T04:22:02.996Z,2.3
2019-05-14T04:23:02.912Z,2.3
2019-05-14T04:24:02.917Z,2.2
2019-05-14T04:25:02.996Z,2.1
2019-05-14T04:26:02.697Z,2.2
2019-05-14T04:27:13.397Z,2.3
2019-05-14T04:28:03.597Z,2.3
2019-05-14T04:29:02.596Z,2.3
2019-05-14T04:30:02.838Z,2.3
2019-05-14T04:31:02.684Z,2.4
2019-05-14T04:32:03.821Z,2.4
2019-05-14T04:33:03.485Z,2.5
2019-05-14T04:34:03.416Z,2.5
2019-05-14T04:35:02.265Z,2.7
2019-05-14T04:36:03.506Z,2.8
2019-05-14T04:37:03.434Z,2.7
2019-05-14T04:38:03.470Z,2.7
2019-05-14T04:39:03.288Z,2.6
2019-05-14T04:40:03.520Z,2.6
2019-05-14T04:41:03.441Z,2.7
2019-05-14T04:42:03.309Z,2.8
2019-05-14T04:43:03.502Z,2.8
2019-05-14T04:44:03.065Z,2.8
2019-05-14T04:45:06.242Z,2.9
2019-05-14T04:46:02.910Z,2.9
2019-05-14T04:47:36.760Z,2.8
2019-05-14T04:48:37.436Z,2.8
2019-05-14T04:50:02.972Z,2.8
2019-05-14T04:51:03.019Z,2.9
2019-05-14T04:52:02.740Z,2.9
2019-05-14T04:53:02.657Z,2.9
2019-05-14T04:54:02.939Z,2.9
2019-05-14T04:55:03.074Z,3.1
2019-05-14T04:56:03.614Z,3.2
2019-05-14T04:57:03.645Z,3.1
2019-05-14T04:58:02.608Z,3.3
2019-05-14T04:59:03.613Z,3.3
2019-05-14T05:00:03.565Z,3.3
2019-05-14T05:01:03.489Z,3.4
2019-05-14T05:02:03.508Z,3.4
2019-05-14T05:03:05.937Z,3.5
2019-05-14T05:04:03.249Z,3.5
2019-05-14T05:05:03.478Z,3.5
2019-05-14T05:06:03.122Z,3.6
2019-05-14T05:07:03.250Z,3.7
2019-05-14T05:08:03.384Z,3.8
2019-05-14T05:09:03.116Z,3.9
2019-05-14T05:10:03.286Z,4.2
2019-05-14T05:11:03.181Z,4.3
2019-05-14T05:12:03.086Z,4.4
2019-05-14T05:13:02.923Z,4.5
2019-05-14T05:14:02.855Z,4.5
2019-05-14T05:15:02.859Z,4.3
2019-05-14T05:16:02.931Z,4.4
2019-05-14T05:17:02.976Z,4.5
2019-05-14T05:18:02.976Z,4.5
2019-05-14T05:19:03.727Z,4.6
2019-05-14T05:20:03.699Z,4.8
2019-05-14T05:21:03.554Z,4.8
2019-05-14T05:22:02.816Z,4.8
2019-05-14T05:23:03.509Z,4.8
2019-05-14T05:24:03.685Z,4.8
2019-05-14T05:25:03.740Z,4.8
2019-05-14T05:26:03.427Z,4.9
2019-05-14T05:27:03.305Z,5.1
2019-05-14T05:28:03.228Z,5.1
2019-05-14T05:29:10.671Z,5.1
2019-05-14T05:30:03.480Z,5.2
2019-05-14T05:31:03.473Z,5.3
2019-05-14T05:32:03.489Z,5.3
2019-05-14T05:33:03.267Z,5.3
2019-05-14T05:34:03.266Z,5.3
2019-05-14T05:35:03.274Z,5.3
2019-05-14T05:36:03.126Z,5.3
2019-05-14T05:37:03.153Z,5.4
2019-05-14T05:38:03.389Z,5.4
2019-05-14T05:39:03.004Z,5.3
2019-05-14T05:40:03.252Z,5.3
2019-05-14T05:41:02.873Z,5.3
2019-05-14T05:42:03.166Z,5.3
2019-05-14T05:43:03.466Z,5.3
2019-05-14T05:44:02.887Z,5.3
2019-05-14T05:45:03.135Z,5.4
2019-05-14T05:46:03.338Z,5.6
2019-05-14T05:47:03.373Z,5.9
2019-05-14T05:48:03.114Z,5.9
2019-05-14T05:49:03.089Z,6.1
2019-05-14T05:50:03.275Z,6.3
2019-05-14T05:51:02.894Z,6.3
2019-05-14T05:52:03.040Z,6.2
2019-05-14T05:53:02.968Z,6.3
2019-05-14T05:54:03.078Z,6.4
2019-05-14T05:55:02.815Z,6.4
2019-05-14T05:56:02.731Z,6.4
2019-05-14T05:57:02.739Z,6.3
2019-05-14T05:58:02.755Z,6.3
2019-05-14T05:59:02.640Z,6.3
2019-05-14T06:00:02.662Z,6.4
2019-05-14T06:01:03.591Z,6.5
2019-05-14T06:02:02.687Z,6.5
2019-05-14T06:03:03.407Z,6.4
2019-05-14T06:04:02.967Z,6.4
2019-05-14T06:05:03.286Z,6.5
2019-05-14T06:06:03.682Z,6.5
2019-05-14T06:07:03.346Z,6.4
2019-05-14T06:08:03.185Z,6.4
2019-05-14T06:09:03.368Z,6.5
2019-05-14T06:10:03.501Z,6.6
2019-05-14T06:11:03.450Z,6.6
2019-05-14T06:12:02.965Z,6.6
2019-05-14T06:13:03.309Z,6.6
2019-05-14T06:14:03.301Z,6.7
2019-05-14T06:15:02.892Z,6.7
2019-05-14T06:16:03.032Z,6.7
2019-05-14T06:17:03.328Z,6.7
2019-05-14T06:18:21.931Z,6.7
2019-05-14T06:19:02.944Z,6.8
2019-05-14T06:20:02.873Z,6.9
2019-05-14T06:21:03.101Z,7
2019-05-14T06:22:04.473Z,7
2019-05-14T06:23:02.857Z,7
2019-05-14T06:24:03.230Z,7.2
2019-05-14T06:25:02.794Z,7.1
2019-05-14T06:26:02.772Z,7.1
2019-05-14T06:27:03.660Z,7.2
2019-05-14T06:28:02.866Z,7.2
2019-05-14T06:29:02.526Z,7.3
2019-05-14T06:30:02.928Z,7.5
2019-05-14T06:31:03.570Z,7.5
2019-05-14T06:32:03.655Z,7.6
2019-05-14T06:33:03.427Z,7.6
2019-05-14T06:34:03.678Z,7.5
2019-05-14T06:35:03.679Z,7.5
2019-05-14T06:36:03.186Z,7.4
2019-05-14T06:37:03.537Z,7.4
2019-05-14T06:38:03.317Z,7.3
2019-05-14T06:39:03.181Z,7.4
2019-05-14T06:40:03.282Z,7.4
2019-05-14T06:41:03.489Z,7.4
2019-05-14T06:42:03.161Z,7.5
2019-05-14T06:43:03.178Z,7.4
2019-05-14T06:44:03.344Z,7.3
2019-05-14T06:45:03.442Z,7.3
2019-05-14T06:46:03.022Z,7.3
2019-05-14T06:47:02.976Z,7.3
2019-05-14T06:48:03.035Z,7.3
2019-05-14T06:49:02.655Z,7.3
2019-05-14T06:50:03.054Z,7.3
2019-05-14T06:51:02.987Z,7.3
2019-05-14T06:52:03.217Z,7.3
2019-05-14T06:53:02.789Z,7.3
2019-05-14T06:54:03.092Z,7.4
2019-05-14T06:55:03.628Z,7.4
2019-05-14T06:56:02.782Z,7.4
2019-05-14T06:57:02.626Z,7.4
2019-05-14T06:58:02.959Z,7.4
2019-05-14T06:59:02.835Z,7.5
2019-05-14T07:00:03.361Z,7.6
2019-05-14T07:01:02.770Z,7.6
2019-05-14T07:02:03.660Z,7.7
2019-05-14T07:03:03.613Z,7.7
2019-05-14T07:04:03.730Z,7.7
2019-05-14T07:05:02.680Z,7.7
2019-05-14T07:06:03.431Z,7.7
2019-05-14T07:07:03.519Z,7.6
2019-05-14T07:08:03.590Z,7.7
2019-05-14T07:09:03.558Z,7.7
2019-05-14T07:10:03.232Z,7.7
2019-05-14T07:11:03.277Z,7.8
2019-05-14T07:12:03.331Z,7.8
2019-05-14T07:13:03.384Z,7.8
2019-05-14T07:14:03.229Z,7.8
2019-05-14T07:15:03.259Z,7.6
2019-05-14T07:16:03.324Z,7.5
2019-05-14T07:17:03.140Z,7.5
2019-05-14T07:18:03.388Z,7.4
2019-05-14T07:19:03.346Z,7.4
2019-05-14T07:20:03.398Z,7.4
2019-05-14T07:21:02.987Z,7.4
2019-05-14T07:22:03.064Z,7.4
2019-05-14T07:23:03.101Z,7.5
2019-05-14T07:24:03.053Z,7.5
2019-05-14T07:25:03.073Z,7.6
2019-05-14T07:26:02.878Z,7.6
2019-05-14T07:27:02.948Z,7.6
2019-05-14T07:28:02.966Z,7.6
2019-05-14T07:29:02.954Z,7.6
2019-05-14T07:30:02.905Z,7.5
2019-05-14T07:31:02.546Z,7.6
2019-05-14T07:32:03.474Z,7.7
2019-05-14T07:33:02.568Z,7.8
2019-05-14T07:34:03.511Z,7.8
2019-05-14T07:35:03.716Z,7.9
2019-05-14T07:36:02.632Z,7.9
2019-05-14T07:37:03.454Z,7.9
2019-05-14T07:38:03.536Z,7.9
2019-05-14T07:39:03.290Z,7.9
2019-05-14T07:40:03.766Z,7.9
2019-05-14T07:41:03.002Z,7.9
2019-05-14T07:42:03.119Z,7.9
2019-05-14T07:43:03.165Z,7.9
2019-05-14T07:44:03.190Z,7.9
2019-05-14T07:45:03.112Z,8.1
2019-05-14T07:46:02.898Z,8.1
2019-05-14T07:47:03.028Z,8.1
2019-05-14T07:48:03.115Z,8.1
2019-05-14T07:49:11.852Z,8
2019-05-14T07:50:03.042Z,8.2
2019-05-14T07:51:02.748Z,8.1
2019-05-14T07:52:02.827Z,8.1
2019-05-14T07:53:03.419Z,8.1
2019-05-14T07:54:02.513Z,8.1
2019-05-14T07:55:03.685Z,8
2019-05-14T07:56:03.066Z,8
2019-05-14T07:57:02.614Z,7.9
2019-05-14T07:58:03.501Z,8
2019-05-14T07:59:03.513Z,8
2019-05-14T08:00:03.483Z,8.1
2019-05-14T08:01:03.459Z,8.1
2019-05-14T08:02:03.365Z,8.2
2019-05-14T08:03:03.531Z,8.1
2019-05-14T08:04:03.696Z,8.2
2019-05-14T08:05:03.548Z,8.3
2019-05-14T08:06:03.523Z,8.3
2019-05-14T08:07:03.278Z,8.3
2019-05-14T08:08:03.399Z,8.2
2019-05-14T08:09:03.728Z,8.1
2019-05-14T08:10:03.430Z,8.1
2019-05-14T08:11:03.361Z,8.1
2019-05-14T08:12:03.100Z,8.3
2019-05-14T08:13:02.877Z,8.3
2019-05-14T08:14:03.366Z,8.3
2019-05-14T08:15:22.320Z,8.3
2019-05-14T08:16:02.938Z,8.4
2019-05-14T08:17:02.891Z,8.4
2019-05-14T08:18:02.938Z,8.6
2019-05-14T08:19:26.171Z,8.7
2019-05-14T08:20:03.013Z,8.7
2019-05-14T08:21:02.937Z,8.7
2019-05-14T08:22:02.981Z,8.9
2019-05-14T08:23:03.623Z,9.2
2019-05-14T08:24:03.554Z,9.3
2019-05-14T08:25:02.686Z,9.4
2019-05-14T08:26:04.915Z,9.6
2019-05-14T08:27:03.588Z,9.8
2019-05-14T08:28:03.509Z,9.9
2019-05-14T08:29:02.690Z,10
2019-05-14T08:30:02.823Z,10.1
2019-05-14T08:31:02.671Z,10.4
2019-05-14T08:32:02.657Z,10.6
2019-05-14T08:33:03.393Z,10.4
2019-05-14T08:34:08.573Z,10.3
2019-05-14T08:35:02.590Z,10.5
2019-05-14T08:36:03.497Z,10.5
2019-05-14T08:37:05.553Z,10.4
2019-05-14T08:38:12.288Z,10.6
2019-05-14T08:39:03.474Z,10.9
2019-05-14T08:40:03.511Z,11.1
2019-05-14T08:41:03.317Z,11.2
2019-05-14T08:42:04.554Z,11.2
2019-05-14T08:43:03.269Z,11.1
2019-05-14T08:44:03.227Z,11.4
2019-05-14T08:45:13.612Z,11.6
2019-05-14T08:46:03.143Z,11.6
2019-05-14T08:47:03.432Z,11.3
2019-05-14T08:48:02.901Z,11.1
2019-05-14T08:49:03.110Z,11
2019-05-14T08:50:03.000Z,11.5
2019-05-14T08:51:03.283Z,11.6
2019-05-14T08:52:02.908Z,11.6
2019-05-14T08:53:02.658Z,11.4
2019-05-14T08:54:02.958Z,11
2019-05-14T08:55:14.351Z,10.8
2019-05-14T08:56:02.697Z,10.4
2019-05-14T08:57:03.704Z,10.2
2019-05-14T08:58:03.059Z,10.2
2019-05-14T08:59:03.526Z,10
2019-05-14T09:00:03.838Z,9.8
2019-05-14T09:01:03.535Z,9.8
2019-05-14T09:02:10.898Z,9.8
2019-05-14T09:03:03.643Z,9.7
2019-05-14T09:04:03.377Z,9.7
2019-05-14T09:05:05.538Z,9.6
2019-05-14T09:06:03.162Z,9.6
2019-05-14T09:07:03.368Z,9.6
2019-05-14T09:08:03.182Z,9.7
2019-05-14T09:09:03.446Z,9.8
2019-05-14T09:10:03.378Z,9.7
2019-05-14T09:11:03.144Z,9.8
2019-05-14T09:12:03.112Z,10.1
2019-05-14T09:13:03.257Z,10.3
2019-05-14T09:14:03.023Z,10.5
2019-05-14T09:15:03.271Z,10.7
2019-05-14T09:16:02.934Z,10.3
2019-05-14T09:17:03.314Z,10.1
2019-05-14T09:18:04.127Z,9.9
2019-05-14T09:19:02.632Z,9.7
2019-05-14T09:20:11.411Z,9.7
2019-05-14T09:21:03.640Z,9.6
2019-05-14T09:22:02.735Z,9.7
2019-05-14T09:23:03.675Z,9.7
2019-05-14T09:24:03.527Z,9.6
2019-05-14T09:25:03.488Z,9.7
2019-05-14T09:26:03.607Z,9.7
2019-05-14T09:27:08.336Z,9.8
2019-05-14T09:28:03.527Z,9.9
2019-05-14T09:29:26.320Z,9.9
2019-05-14T09:30:03.394Z,9.8
2019-05-14T09:31:03.231Z,9.8
2019-05-14T09:32:02.997Z,9.6
2019-05-14T09:33:03.307Z,9.6
2019-05-14T09:34:03.373Z,9.6
2019-05-14T09:35:03.100Z,9.7
2019-05-14T09:36:24.062Z,9.7
2019-05-14T09:37:03.059Z,9.8
2019-05-14T09:38:02.875Z,10.2
2019-05-14T09:39:02.907Z,10.4
2019-05-14T09:40:02.897Z,10.5
2019-05-14T09:41:15.672Z,10.3
2019-05-14T09:42:02.804Z,10.3
2019-05-14T09:43:03.026Z,10.6
2019-05-14T09:44:03.165Z,10.9
2019-05-14T09:45:02.767Z,11.1
2019-05-14T09:46:02.798Z,11.3
2019-05-14T09:47:02.617Z,11.3
2019-05-14T09:48:03.595Z,11.4
2019-05-14T09:49:03.605Z,11.3
2019-05-14T09:50:23.530Z,11.8
2019-05-14T09:51:03.477Z,12.1
2019-05-14T09:52:02.770Z,11.9
2019-05-14T09:53:02.760Z,11.8
2019-05-14T09:54:03.692Z,11.3
2019-05-14T09:55:03.491Z,10.8
2019-05-14T09:56:02.671Z,10.8
2019-05-14T09:57:02.710Z,10.6
2019-05-14T09:58:03.475Z,10.4
2019-05-14T09:59:03.615Z,10.3
2019-05-14T10:00:03.426Z,10.2
2019-05-14T10:01:03.322Z,10.1
2019-05-14T10:02:03.204Z,10
2019-05-14T10:03:03.252Z,9.9
2019-05-14T10:04:03.496Z,9.8
2019-05-14T10:05:03.520Z,9.8
2019-05-14T10:06:02.906Z,9.7
2019-05-14T10:07:03.149Z,9.6
2019-05-14T10:08:03.235Z,9.5
2019-05-14T10:09:03.014Z,9.5
2019-05-14T10:10:03.199Z,9.4
2019-05-14T10:11:03.094Z,9.6
2019-05-14T10:12:02.936Z,10.1
2019-05-14T10:13:02.810Z,10.6
2019-05-14T10:14:02.842Z,10.9
2019-05-14T10:15:02.998Z,11.3
2019-05-14T10:16:03.013Z,11.3
2019-05-14T10:17:02.824Z,11
2019-05-14T10:18:02.917Z,11.2
2019-05-14T10:19:02.962Z,11.6
2019-05-14T10:20:02.977Z,11.6
2019-05-14T10:21:03.005Z,11.6
2019-05-14T10:22:03.291Z,12
2019-05-14T10:23:03.653Z,12.3
2019-05-14T10:24:03.665Z,12.3
2019-05-14T10:25:03.784Z,12.1
2019-05-14T10:26:03.417Z,12
2019-05-14T10:27:02.746Z,11.6
2019-05-14T10:28:03.734Z,11.3
2019-05-14T10:29:02.813Z,11.3
2019-05-14T10:30:03.399Z,11.7
2019-05-14T10:31:03.976Z,11.4
2019-05-14T10:32:02.707Z,11.2
2019-05-14T10:33:15.252Z,11.1
2019-05-14T10:34:03.194Z,11.1
2019-05-14T10:35:03.467Z,10.9
2019-05-14T10:36:03.281Z,11.1
2019-05-14T10:37:03.186Z,11.1
2019-05-14T10:38:03.141Z,11.1
2019-05-14T10:39:03.358Z,11.2
2019-05-14T10:40:03.269Z,10.9
2019-05-14T10:41:03.271Z,10.7
2019-05-14T10:42:03.309Z,10.9
2019-05-14T10:43:03.179Z,11
2019-05-14T10:44:03.026Z,11.3
2019-05-14T10:45:03.104Z,11.3
2019-05-14T10:46:02.739Z,11.8
2019-05-14T10:47:03.574Z,12.1
2019-05-14T10:48:03.103Z,12.3
2019-05-14T10:49:23.937Z,12.4
2019-05-14T10:50:03.107Z,12.4
2019-05-14T10:51:03.948Z,12.7
2019-05-14T10:52:03.101Z,12.6
2019-05-14T10:53:02.866Z,12.6
2019-05-14T10:54:26.691Z,12.7
2019-05-14T10:55:02.858Z,12.6
2019-05-14T10:56:03.053Z,12.8
2019-05-14T10:57:02.780Z,12.9
2019-05-14T10:58:02.719Z,12.6
2019-05-14T11:00:02.615Z,12.6
2019-05-14T11:01:03.737Z,12.4
2019-05-14T11:02:02.853Z,12.4
2019-05-14T11:03:03.682Z,12.4
2019-05-14T11:04:03.351Z,12.6
2019-05-14T11:05:03.570Z,12.9
2019-05-14T11:07:02.466Z,12.6
2019-05-14T11:08:01.967Z,12.8
2019-05-14T11:09:02.304Z,12.8
2019-05-14T11:10:02.654Z,12.9
2019-05-14T11:11:04.627Z,13.2
2019-05-14T11:12:02.310Z,13.2
2019-05-14T11:13:02.476Z,13.2
2019-05-14T11:14:02.390Z,13.3
2019-05-14T11:15:02.358Z,13.5
2019-05-14T11:16:02.425Z,13.6
2019-05-14T11:17:01.970Z,13.4
2019-05-14T11:18:02.032Z,13.2
2019-05-14T11:19:01.940Z,13.2
2019-05-14T11:20:02.801Z,13.3
2019-05-14T11:21:29.214Z,13.2
2019-05-14T11:22:01.856Z,13.1
2019-05-14T11:23:01.946Z,12.6
2019-05-14T11:24:01.832Z,11.9
2019-05-14T11:25:02.092Z,11.9
2019-05-14T11:26:02.026Z,11.7
2019-05-14T11:27:01.699Z,12.1
2019-05-14T11:28:02.744Z,12.7
2019-05-14T11:29:02.470Z,12.9
2019-05-14T11:30:01.700Z,13.1
2019-05-14T11:31:02.558Z,12.8
2019-05-14T11:32:02.495Z,12.3
2019-05-14T11:33:02.508Z,12
2019-05-14T11:34:02.709Z,11.7
2019-05-14T11:35:02.359Z,11.6
2019-05-14T11:36:02.468Z,11.4
2019-05-14T11:37:02.400Z,11.3
2019-05-14T11:38:02.439Z,11.6
2019-05-14T11:38:37.850Z,12.1
2019-05-14T11:39:04.332Z,11.9
2019-05-14T11:40:03.456Z,11.7
2019-05-14T11:41:03.119Z,11.4
2019-05-14T11:42:03.318Z,11.3
2019-05-14T11:43:02.907Z,11.3
2019-05-14T11:44:03.427Z,11.3
2019-05-14T11:45:03.375Z,11.2
2019-05-14T11:46:02.811Z,11.2
2019-05-14T11:47:03.094Z,11.1
2019-05-14T11:48:02.938Z,11.3
2019-05-14T11:49:02.932Z,11.2
2019-05-14T11:50:03.266Z,11.5
2019-05-14T11:51:03.149Z,11.8
2019-05-14T11:52:11.992Z,12.1
2019-05-14T11:53:02.927Z,12.3
2019-05-14T11:54:02.738Z,12.7
2019-05-14T11:55:03.258Z,12.7
2019-05-14T11:56:03.757Z,13.1
2019-05-14T11:57:03.065Z,13.1
2019-05-14T11:58:02.791Z,13.1
2019-05-14T11:59:03.646Z,13.3
2019-05-14T12:00:02.893Z,12.8
2019-05-14T12:01:02.717Z,12.6
2019-05-14T12:02:03.545Z,12.4
2019-05-14T12:03:03.361Z,12.5
2019-05-14T12:04:02.658Z,12.8
2019-05-14T12:05:02.949Z,13.1
2019-05-14T12:06:02.875Z,13
2019-05-14T12:07:03.711Z,13
2019-05-14T12:08:03.068Z,13.1
2019-05-14T12:09:03.019Z,12.9
2019-05-14T12:10:03.462Z,13.2
2019-05-14T12:11:02.783Z,12.9
2019-05-14T12:12:03.826Z,12.6
2019-05-14T12:13:02.704Z,12.1
2019-05-14T12:14:03.477Z,12
2019-05-14T12:15:02.751Z,12
2019-05-14T12:16:03.736Z,11.9
2019-05-14T12:17:03.663Z,11.9
2019-05-14T12:18:03.562Z,12.6
2019-05-14T12:19:03.396Z,12.9
2019-05-14T12:20:03.418Z,13.1
2019-05-14T12:21:03.011Z,12.9
2019-05-14T12:22:12.403Z,13
2019-05-14T12:23:03.083Z,13.2
2019-05-14T12:24:13.388Z,13.1
2019-05-14T12:25:03.150Z,13.3
2019-05-14T12:26:03.178Z,13.4
2019-05-14T12:27:02.999Z,13.4
2019-05-14T12:28:03.154Z,13.3
2019-05-14T12:29:03.095Z,13.4
2019-05-14T12:30:03.259Z,13.2
2019-05-14T12:31:03.068Z,13.1
2019-05-14T12:32:03.197Z,13.1
2019-05-14T12:33:02.845Z,12.8
2019-05-14T12:34:03.681Z,12.6
2019-05-14T12:35:02.969Z,12.8
2019-05-14T12:36:02.594Z,12.7
2019-05-14T12:37:02.713Z,12.6
2019-05-14T12:38:03.643Z,12.4
2019-05-14T12:39:02.705Z,12.4
2019-05-14T12:40:02.562Z,12.6
2019-05-14T12:41:03.432Z,12.5
2019-05-14T12:42:03.465Z,12.8
2019-05-14T12:43:03.437Z,13.1
2019-05-14T12:44:03.412Z,13.2
2019-05-14T12:45:03.297Z,13.2
2019-05-14T12:46:03.291Z,13.3
2019-05-14T12:47:03.300Z,13.2
2019-05-14T12:48:03.484Z,13.2
2019-05-14T12:49:03.313Z,13.3
2019-05-14T12:50:03.481Z,12.9
2019-05-14T12:51:02.990Z,12.5
2019-05-14T12:52:26.211Z,12.4
2019-05-14T12:53:03.365Z,12.1
2019-05-14T12:54:03.236Z,11.8
2019-05-14T12:55:03.114Z,11.8
2019-05-14T12:56:02.996Z,12.2
2019-05-14T12:57:02.879Z,12.4
2019-05-14T12:58:03.601Z,12.7
2019-05-14T12:59:02.790Z,12.9
2019-05-14T13:00:03.187Z,13.1
2019-05-14T13:01:03.066Z,13.2
2019-05-14T13:02:03.705Z,13.4
2019-05-14T13:03:02.662Z,13.3
2019-05-14T13:04:03.064Z,13.3
2019-05-14T13:05:03.701Z,13.3
2019-05-14T13:06:02.721Z,13.6
2019-05-14T13:07:03.618Z,13.6
2019-05-14T13:08:03.606Z,13.3
2019-05-14T13:09:03.555Z,13.2
2019-05-14T13:10:03.585Z,13.3
2019-05-14T13:11:03.557Z,13.1
2019-05-14T13:12:03.627Z,12.8
2019-05-14T13:13:03.685Z,12.4
2019-05-14T13:14:03.268Z,12.1
2019-05-14T13:15:03.629Z,12.2
2019-05-14T13:16:04.701Z,12
2019-05-14T13:17:03.606Z,11.8
2019-05-14T13:18:03.459Z,11.7
2019-05-14T13:19:03.435Z,11.6
2019-05-14T13:20:03.141Z,11.4
2019-05-14T13:21:03.356Z,11.3
2019-05-14T13:22:20.695Z,11.3
2019-05-14T13:23:03.107Z,11.3
2019-05-14T13:24:02.871Z,11.2
2019-05-14T13:25:03.075Z,10.9
2019-05-14T13:26:02.917Z,10.6
2019-05-14T13:27:03.001Z,10.3
2019-05-14T13:28:03.154Z,10.3
2019-05-14T13:29:10.999Z,10.2
2019-05-14T13:30:03.112Z,10.1
2019-05-14T13:31:02.916Z,10
2019-05-14T13:32:03.795Z,10
2019-05-14T13:33:02.737Z,10.1
2019-05-14T13:34:02.622Z,10.1
2019-05-14T13:35:03.671Z,10.2
2019-05-14T13:36:03.541Z,10.3
2019-05-14T13:37:03.461Z,10.3
2019-05-14T13:38:03.657Z,10.3
2019-05-14T13:39:03.468Z,10.3
2019-05-14T13:40:03.690Z,10.3
2019-05-14T13:41:02.781Z,10.3